Impacts METAR Board INFO
IDs:

KLAX - Los Angeles Intl, CA, US

Updated at: 0721 UTC 13 Dec 2017
Potential Impact None Slight Moderate High
Time12/19Z 12/20Z 12/21Z 12/22Z 12/23Z 13/00Z 13/01Z 13/02Z 13/03Z 13/04Z 13/05Z 13/06Z 13/07Z
VIS10 10 10 10 10 10 5 5 6 10 10 10 10
CIG-- -- -- -- -- -- -- -- -- -- -- -- --
CoverSCTSCTSCTSCTFEWFEWFEWCLRCLRCLRCLRCLRCLR
FltCatVFRVFRVFRVFRVFRVFRMVFRMVFRVFRVFRVFRVFRVFR
WX------------FUFUHZ--------
WDir002602602702702400008000
WSpd0 0 9 11 8 10 5 4 0 0 3 0 3
WGst-- -- -- -- -- -- -- -- -- -- -- -- --
Raw hourly METARs
KLAX 121853Z 00000KT 10SM FEW080 FEW110 SCT160 SCT190 26/M17 A3016 RMK AO2 SLP212 T02561172
KLAX 121953Z 00000KT 10SM FEW080 FEW120 SCT160 SCT200 28/M17 A3012 RMK AO2 SLP198 T02781167
KLAX 122053Z 26009KT 10SM FEW080 FEW140 SCT220 26/M05 A3008 RMK AO2 SLP185 T02561050 58036
KLAX 122153Z 26011KT 10SM FEW075 FEW090 SCT180 24/M01 A3006 RMK AO2 SLP177 T02391006
KLAX 122253Z 27008KT 10SM FEW090 FEW200 23/02 A3004 RMK AO2 SLP173 T02330017
KLAX 122353Z 27010KT 10SM FEW090 FEW200 21/06 A3004 RMK AO2 SLP171 T02110061 10278 20211 56016
KLAX 130053Z 24005KT 5SM R25L/4500VP6000FT FU FEW020 FEW150 19/06 A3004 RMK AO2 SLP170 FU FEW020 T01940056
KLAX 130153Z VRB04KT 5SM FU CLR 18/09 A3004 RMK AO2 SLP171 T01830094
KLAX 130253Z 00000KT 6SM HZ CLR 18/08 A3004 RMK AO2 SLP172 T01780083 53001
KLAX 130353Z 00000KT 10SM CLR 17/09 A3004 RMK AO2 SLP171 T01720089
KLAX 130453Z 08003KT 10SM CLR 16/05 A3004 RMK AO2 SLP170 T01610050
KLAX 130553Z 00000KT 10SM CLR 17/02 A3004 RMK AO2 SLP168 T01670017 10211 20156 57001
KLAX 130653Z VRB03KT 10SM CLR 17/M02 A3004 RMK AO2 SLP167 T01671022